Duncan, Iowa
Current Conditions -  °F | °C
As of 9:35 PM on Saturday 22 Nov 2014 (Local Time) from KFXY Reporting Station
Haze Haze  
Wind Chill:   Ceiling: 300
Heat Index:   Visibility: 4mi
Dew Point:   Wind: 13mph
Humidity: 100%   Direction: 180°S
Pressure: 29.58"   Gusts: NA
Location:  43.1015°N, 93.7581°W
Report Text: KFXY 230335Z AUTO 18011KT 4SM BR OVC003 09/09 A2958 RMK AO2
Loading
Personal Weather Stations






























Interactive Weather Map New forecast layout! Learn more

10-Day Weather Forecast

Advertisements
Track Severe Weather on mobile